createdAt,value
2023-05-05T00:03:54.748Z,67.20
2023-05-05T00:08:12.649Z,67.70
2023-05-05T00:12:32.147Z,68.20
2023-05-05T00:16:52.531Z,68.50
2023-05-05T00:21:10.084Z,68.60
2023-05-05T00:25:29.233Z,69.00
2023-05-05T00:29:50.731Z,69.20
2023-05-05T00:34:10.305Z,69.30
2023-05-05T00:38:28.805Z,69.50
2023-05-05T00:42:48.092Z,69.80
2023-05-05T00:47:13.931Z,71.00
2023-05-05T00:51:32.057Z,70.40
2023-05-05T00:55:50.624Z,70.70
2023-05-05T01:00:10.027Z,70.70
2023-05-05T01:04:30.611Z,70.90
2023-05-05T01:09:04.495Z,70.90
2023-05-05T01:13:31.479Z,70.90
2023-05-05T01:18:01.022Z,70.90
2023-05-05T01:22:28.288Z,70.90
2023-05-05T01:27:04.766Z,71.00
2023-05-05T01:31:51.709Z,71.10
2023-05-05T01:36:22.876Z,71.40
2023-05-05T01:40:46.240Z,71.50
2023-05-05T01:45:08.275Z,71.60
2023-05-05T01:49:29.106Z,72.10
2023-05-05T01:53:51.591Z,72.40
2023-05-05T01:58:13.504Z,72.80
2023-05-05T02:02:34.785Z,72.80
2023-05-05T02:06:57.354Z,72.80
2023-05-05T02:11:15.994Z,73.00
2023-05-05T02:15:39.239Z,73.20
2023-05-05T02:19:58.941Z,73.30
2023-05-05T02:24:20.115Z,73.80
2023-05-05T02:28:43.474Z,74.00
2023-05-05T02:33:07.249Z,74.10
2023-05-05T02:37:28.590Z,74.20
2023-05-05T02:41:52.638Z,74.10
2023-05-05T02:46:19.966Z,74.20
2023-05-05T02:50:40.686Z,74.30
2023-05-05T02:55:20.437Z,74.60
2023-05-05T02:59:49.664Z,74.70
2023-05-05T03:04:18.784Z,75.00
2023-05-05T03:08:45.523Z,75.30
2023-05-05T03:13:08.717Z,75.30
2023-05-05T03:17:36.869Z,75.40
2023-05-05T03:21:58.035Z,75.40
2023-05-05T03:26:18.745Z,75.60
2023-05-05T03:30:40.119Z,75.90
2023-05-05T03:34:59.637Z,76.00
2023-05-05T03:39:22.248Z,76.10
2023-05-05T03:43:43.117Z,76.20
2023-05-05T03:48:01.319Z,76.40
2023-05-05T03:52:23.769Z,76.50
2023-05-05T03:56:43.381Z,76.80
2023-05-05T04:01:05.075Z,77.10
2023-05-05T04:05:23.682Z,77.50
2023-05-05T04:09:45.485Z,78.10
2023-05-05T04:14:04.993Z,78.60
2023-05-05T04:18:23.242Z,79.00
2023-05-05T04:22:41.675Z,79.60
2023-05-05T04:27:03.762Z,79.70
2023-05-05T04:31:24.708Z,79.50
2023-05-05T04:35:44.441Z,79.30
2023-05-05T04:40:02.591Z,79.50
2023-05-05T04:44:25.102Z,78.40
2023-05-05T04:48:44.832Z,78.60
2023-05-05T04:53:05.922Z,78.30
2023-05-05T04:57:24.052Z,76.30
2023-05-05T05:01:43.469Z,73.20
2023-05-05T05:06:03.119Z,70.40
2023-05-05T05:10:21.144Z,68.20
2023-05-05T05:14:39.340Z,66.20
2023-05-05T05:19:01.406Z,64.50
2023-05-05T05:23:21.472Z,61.00
2023-05-05T05:27:39.622Z,58.90
2023-05-05T05:31:57.646Z,58.30
2023-05-05T05:36:17.813Z,57.40
2023-05-05T05:40:37.415Z,56.10
2023-05-05T05:44:57.058Z,55.10
2023-05-05T05:49:16.370Z,54.10
2023-05-05T05:53:38.205Z,53.20
2023-05-05T05:57:58.783Z,51.50
2023-05-05T06:02:16.599Z,49.70
2023-05-05T06:06:34.432Z,47.50
2023-05-05T06:10:54.163Z,46.30
2023-05-05T06:15:13.479Z,45.30
2023-05-05T06:19:31.563Z,44.30
2023-05-05T06:23:49.718Z,43.80
2023-05-05T06:28:09.160Z,43.20
2023-05-05T06:32:29.009Z,43.30
2023-05-05T06:36:46.844Z,42.90
2023-05-05T06:41:05.164Z,42.90
2023-05-05T06:45:24.301Z,40.20
2023-05-05T06:49:44.182Z,38.40
2023-05-05T06:54:02.268Z,37.50
2023-05-05T06:58:20.144Z,37.10
2023-05-05T07:02:40.047Z,36.30
2023-05-05T07:06:59.545Z,36.40
2023-05-05T07:11:17.705Z,36.30
2023-05-05T07:15:35.506Z,36.30
2023-05-05T07:19:58.272Z,36.50
2023-05-05T07:24:17.720Z,36.30
2023-05-05T07:28:36.433Z,36.10
2023-05-05T07:32:55.033Z,35.60
2023-05-05T07:37:16.320Z,34.80
2023-05-05T07:41:36.026Z,34.30
2023-05-05T07:45:54.288Z,34.00
2023-05-05T07:50:12.645Z,33.50
2023-05-05T07:54:32.000Z,33.20
2023-05-05T07:58:51.445Z,32.70
2023-05-05T08:03:11.470Z,32.50
2023-05-05T08:07:30.624Z,32.90
2023-05-05T08:11:49.990Z,32.40
2023-05-05T08:16:09.925Z,32.40
2023-05-05T08:20:30.472Z,31.80
2023-05-05T08:24:48.898Z,31.20
2023-05-05T08:29:08.511Z,30.40
2023-05-05T08:33:28.092Z,30.20
2023-05-05T08:37:46.865Z,30.00
2023-05-05T08:42:04.750Z,29.50
2023-05-05T08:46:28.163Z,29.50
2023-05-05T08:50:51.235Z,29.70
2023-05-05T08:55:16.238Z,29.60
2023-05-05T08:59:35.639Z,29.10
2023-05-05T09:03:54.842Z,28.90
2023-05-05T09:08:14.289Z,28.90
2023-05-05T09:12:32.707Z,29.40
2023-05-05T09:16:50.149Z,30.40
2023-05-05T09:21:23.135Z,29.90
2023-05-05T09:25:42.183Z,29.60
2023-05-05T09:29:59.766Z,29.70
2023-05-05T09:34:18.576Z,29.60
2023-05-05T09:38:37.465Z,29.50
2023-05-05T09:43:02.901Z,29.40
2023-05-05T09:47:29.349Z,29.40
2023-05-05T09:51:49.219Z,28.90
2023-05-05T09:56:10.345Z,28.30
2023-05-05T10:00:39.775Z,28.20
2023-05-05T10:05:07.436Z,27.80
2023-05-05T10:09:25.477Z,27.20
2023-05-05T10:13:44.547Z,27.10
2023-05-05T10:18:08.150Z,28.40
2023-05-05T10:22:30.417Z,29.10
2023-05-05T10:26:51.143Z,29.80
2023-05-05T10:31:26.251Z,30.70
2023-05-05T10:35:47.379Z,31.10
2023-05-05T10:40:07.345Z,31.60
2023-05-05T10:44:26.701Z,32.20
2023-05-05T10:48:52.602Z,32.60
2023-05-05T10:53:18.465Z,31.70
2023-05-05T10:57:43.537Z,32.30
2023-05-05T11:02:18.840Z,32.40
2023-05-05T11:06:38.070Z,32.70
2023-05-05T11:10:58.053Z,33.40
2023-05-05T11:15:37.808Z,33.90
2023-05-05T11:19:55.669Z,34.30
2023-05-05T11:24:30.381Z,34.90
2023-05-05T11:29:01.804Z,31.00
2023-05-05T11:33:28.470Z,30.80
2023-05-05T11:38:01.989Z,30.10
2023-05-05T11:42:25.782Z,29.10
2023-05-05T11:47:18.668Z,28.50
2023-05-05T11:51:37.827Z,29.00
2023-05-05T11:56:07.922Z,28.90
2023-05-05T12:00:36.536Z,28.10
2023-05-05T12:04:56.394Z,28.80
2023-05-05T12:09:17.135Z,28.80
2023-05-05T12:13:35.436Z,29.80
2023-05-05T12:17:54.385Z,29.60
2023-05-05T12:22:20.600Z,29.70
2023-05-05T12:26:38.659Z,29.50
2023-05-05T12:30:59.501Z,31.80
2023-05-05T12:35:19.902Z,33.80
2023-05-05T12:39:39.066Z,34.70
2023-05-05T12:43:57.720Z,35.30
2023-05-05T12:48:25.874Z,32.40
2023-05-05T12:52:47.072Z,34.20
2023-05-05T12:57:12.852Z,34.80
2023-05-05T13:01:31.247Z,34.70
2023-05-05T13:05:48.470Z,35.40
2023-05-05T13:10:12.178Z,35.70
2023-05-05T13:14:31.777Z,35.20
2023-05-05T13:18:53.764Z,35.20
2023-05-05T13:23:12.965Z,35.30
2023-05-05T13:27:32.404Z,34.90
2023-05-05T13:31:52.196Z,34.80
2023-05-05T13:36:10.550Z,34.10
2023-05-05T13:40:28.341Z,34.60
2023-05-05T13:44:47.905Z,34.50
2023-05-05T13:49:07.477Z,34.20
2023-05-05T13:53:25.461Z,34.90
2023-05-05T13:57:43.762Z,34.90
2023-05-05T14:02:03.644Z,35.10
2023-05-05T14:06:22.819Z,35.30
2023-05-05T14:10:41.537Z,35.10
2023-05-05T14:14:58.866Z,35.60
2023-05-05T14:19:18.420Z,35.80
2023-05-05T14:23:37.903Z,36.00
2023-05-05T14:27:56.798Z,35.90
2023-05-05T14:32:14.136Z,36.40
2023-05-05T14:36:33.647Z,37.20
2023-05-05T14:40:53.518Z,36.60
2023-05-05T14:45:12.373Z,36.90
2023-05-05T14:49:29.703Z,36.80
2023-05-05T14:53:48.977Z,36.60
2023-05-05T14:58:08.695Z,36.70
2023-05-05T15:02:26.749Z,36.80
2023-05-05T15:06:46.487Z,37.00
2023-05-05T15:11:07.304Z,37.30
2023-05-05T15:15:29.972Z,37.80
2023-05-05T15:19:48.611Z,38.10
2023-05-05T15:24:06.826Z,38.30
2023-05-05T15:28:26.378Z,38.50
2023-05-05T15:32:45.593Z,38.70
2023-05-05T15:37:03.432Z,38.70
2023-05-05T15:41:21.477Z,39.00
2023-05-05T15:45:41.330Z,39.30
2023-05-05T15:50:00.765Z,39.60
2023-05-05T15:54:18.948Z,39.90
2023-05-05T15:58:37.318Z,40.00
2023-05-05T16:02:56.503Z,40.10
2023-05-05T16:07:17.088Z,40.20
2023-05-05T16:11:37.550Z,40.40
2023-05-05T16:15:55.659Z,40.40
2023-05-05T16:20:14.987Z,40.60
2023-05-05T16:24:34.550Z,40.80
2023-05-05T16:28:52.574Z,41.00
2023-05-05T16:33:10.735Z,41.10
2023-05-05T16:37:30.260Z,41.40
2023-05-05T16:41:51.278Z,41.60
2023-05-05T16:46:11.335Z,42.00
2023-05-05T16:50:28.899Z,42.20
2023-05-05T16:54:55.328Z,42.40
2023-05-05T16:59:16.608Z,42.80
2023-05-05T17:03:36.130Z,43.30
2023-05-05T17:07:53.582Z,43.60
2023-05-05T17:12:14.925Z,44.00
2023-05-05T17:16:32.972Z,44.40
2023-05-05T17:20:51.441Z,44.70
2023-05-05T17:25:09.596Z,45.10
2023-05-05T17:29:31.532Z,45.60
2023-05-05T17:33:50.993Z,46.00
2023-05-05T17:38:09.162Z,46.60
2023-05-05T17:42:30.278Z,46.90
2023-05-05T17:46:49.895Z,47.20
2023-05-05T17:51:09.821Z,47.70
2023-05-05T17:55:27.963Z,48.40
2023-05-05T17:59:45.792Z,48.90
2023-05-05T18:04:04.755Z,49.30
2023-05-05T18:08:24.642Z,49.60
2023-05-05T18:12:42.778Z,49.90
2023-05-05T18:17:01.380Z,50.10
2023-05-05T18:21:20.307Z,50.20
2023-05-05T18:25:39.962Z,50.10
2023-05-05T18:29:57.945Z,50.30
2023-05-05T18:34:16.802Z,54.30
2023-05-05T18:38:35.337Z,56.80
2023-05-05T18:42:55.242Z,58.60
2023-05-05T18:47:13.209Z,61.10
2023-05-05T18:51:32.263Z,62.00
2023-05-05T18:55:50.650Z,63.80
2023-05-05T19:00:12.158Z,64.30
2023-05-05T19:04:32.260Z,65.10
2023-05-05T19:08:49.824Z,66.00
2023-05-05T19:13:10.882Z,67.90
2023-05-05T19:17:28.884Z,69.30
2023-05-05T19:21:47.039Z,70.40
2023-05-05T19:26:05.750Z,71.70
2023-05-05T19:30:24.912Z,74.60
2023-05-05T19:34:44.085Z,83.90
2023-05-05T19:39:03.065Z,95.40
2023-05-05T19:43:20.318Z,99.90
2023-05-05T19:47:39.819Z,99.90
2023-05-05T19:51:59.454Z,99.90
2023-05-05T19:56:17.997Z,99.90
2023-05-05T20:00:35.843Z,99.90
2023-05-05T20:04:55.022Z,99.90
2023-05-05T20:09:15.043Z,99.90
2023-05-05T20:13:34.390Z,99.90
2023-05-05T20:17:53.854Z,99.90
2023-05-05T20:22:13.219Z,99.90
2023-05-05T20:26:33.404Z,99.90
2023-05-05T20:30:51.169Z,99.90
2023-05-05T20:35:10.270Z,99.90
2023-05-05T20:39:31.885Z,99.90
2023-05-05T20:43:51.457Z,99.90
2023-05-05T20:48:11.413Z,99.90
2023-05-05T20:52:35.117Z,99.90
2023-05-05T20:56:58.189Z,99.90
2023-05-05T21:01:16.093Z,99.90
2023-05-05T21:05:34.040Z,99.90
2023-05-05T21:09:52.329Z,99.90
2023-05-05T21:14:11.602Z,99.90
2023-05-05T21:18:31.535Z,99.90
2023-05-05T21:22:49.235Z,99.90
2023-05-05T21:27:07.523Z,99.90
2023-05-05T21:31:26.850Z,99.90
2023-05-05T21:35:46.645Z,99.90
2023-05-05T21:40:04.874Z,99.90
2023-05-05T21:44:22.711Z,99.90
2023-05-05T21:48:42.909Z,99.90
2023-05-05T21:53:01.887Z,99.90
2023-05-05T21:57:20.149Z,99.90
2023-05-05T22:01:39.415Z,99.90
2023-05-05T22:06:00.652Z,99.90
2023-05-05T22:10:21.488Z,99.90
2023-05-05T22:14:41.453Z,99.90
2023-05-05T22:18:59.368Z,99.90
2023-05-05T22:23:19.079Z,99.90
2023-05-05T22:27:38.807Z,99.90
2023-05-05T22:31:56.648Z,99.90
2023-05-05T22:36:15.119Z,99.90
2023-05-05T22:40:34.473Z,99.90
2023-05-05T22:44:53.962Z,99.90
2023-05-05T22:49:12.059Z,99.90
2023-05-05T22:53:29.930Z,99.90
2023-05-05T22:57:50.062Z,99.90
2023-05-05T23:02:09.139Z,99.90
2023-05-05T23:06:29.183Z,99.90
2023-05-05T23:10:48.291Z,99.90
2023-05-05T23:15:09.984Z,99.90
2023-05-05T23:19:29.057Z,99.90
2023-05-05T23:23:49.175Z,99.90
2023-05-05T23:28:06.621Z,99.90
2023-05-05T23:32:26.860Z,99.90
2023-05-05T23:36:46.227Z,99.90
2023-05-05T23:41:03.946Z,99.90
2023-05-05T23:45:21.985Z,99.90
2023-05-05T23:49:41.843Z,99.90
2023-05-05T23:54:01.290Z,99.90
2023-05-05T23:58:19.172Z,99.90
